sensor_id;sensor_type;location;lat;lon;timestamp;temperature;humidity
17697;DHT22;8967;47.984;7.842;2023-11-19T00:00:50;11.40;99.90
17697;DHT22;8967;47.984;7.842;2023-11-19T00:03:17;11.40;99.90
17697;DHT22;8967;47.984;7.842;2023-11-19T00:05:44;11.50;99.90
17697;DHT22;8967;47.984;7.842;2023-11-19T00:08:14;11.50;99.90
17697;DHT22;8967;47.984;7.842;2023-11-19T00:10:41;11.50;99.90
17697;DHT22;8967;47.984;7.842;2023-11-19T00:13:08;11.50;99.90
17697;DHT22;8967;47.984;7.842;2023-11-19T00:15:36;11.60;99.90
17697;DHT22;8967;47.984;7.842;2023-11-19T00:18:04;11.60;99.90
17697;DHT22;8967;47.984;7.842;2023-11-19T00:20:32;11.60;99.90
17697;DHT22;8967;47.984;7.842;2023-11-19T00:22:59;11.60;99.90
17697;DHT22;8967;47.984;7.842;2023-11-19T00:25:28;11.70;99.90
17697;DHT22;8967;47.984;7.842;2023-11-19T00:27:55;11.70;99.90
17697;DHT22;8967;47.984;7.842;2023-11-19T00:30:25;11.70;99.90
17697;DHT22;8967;47.984;7.842;2023-11-19T00:32:54;11.70;99.90
17697;DHT22;8967;47.984;7.842;2023-11-19T00:35:25;11.80;99.90
17697;DHT22;8967;47.984;7.842;2023-11-19T00:37:55;11.80;99.90
17697;DHT22;8967;47.984;7.842;2023-11-19T00:40:22;11.90;99.90
17697;DHT22;8967;47.984;7.842;2023-11-19T00:42:52;11.90;99.90
17697;DHT22;8967;47.984;7.842;2023-11-19T00:45:19;11.90;99.90
17697;DHT22;8967;47.984;7.842;2023-11-19T00:47:46;11.90;99.90
17697;DHT22;8967;47.984;7.842;2023-11-19T00:50:16;11.90;99.90
17697;DHT22;8967;47.984;7.842;2023-11-19T00:52:49;11.90;99.90
17697;DHT22;8967;47.984;7.842;2023-11-19T00:55:17;12.00;99.90
17697;DHT22;8967;47.984;7.842;2023-11-19T00:57:44;11.90;99.90
17697;DHT22;8967;47.984;7.842;2023-11-19T01:00:13;12.00;99.90
17697;DHT22;8967;47.984;7.842;2023-11-19T01:02:44;12.00;99.90
17697;DHT22;8967;47.984;7.842;2023-11-19T01:05:11;12.00;99.90
17697;DHT22;8967;47.984;7.842;2023-11-19T01:07:42;12.00;99.90
17697;DHT22;8967;47.984;7.842;2023-11-19T01:10:11;12.00;99.90
17697;DHT22;8967;47.984;7.842;2023-11-19T01:12:38;12.00;99.90
17697;DHT22;8967;47.984;7.842;2023-11-19T01:15:06;12.10;99.90
17697;DHT22;8967;47.984;7.842;2023-11-19T01:17:34;12.10;99.90
17697;DHT22;8967;47.984;7.842;2023-11-19T01:20:04;12.00;99.90
17697;DHT22;8967;47.984;7.842;2023-11-19T01:22:33;12.10;99.90
17697;DHT22;8967;47.984;7.842;2023-11-19T01:25:00;12.10;99.90
17697;DHT22;8967;47.984;7.842;2023-11-19T01:27:29;12.10;99.90
17697;DHT22;8967;47.984;7.842;2023-11-19T01:29:56;12.10;99.90
17697;DHT22;8967;47.984;7.842;2023-11-19T01:32:23;12.10;99.90
17697;DHT22;8967;47.984;7.842;2023-11-19T01:34:51;12.10;99.90
17697;DHT22;8967;47.984;7.842;2023-11-19T01:37:20;12.10;99.90
17697;DHT22;8967;47.984;7.842;2023-11-19T01:39:47;12.20;99.90
17697;DHT22;8967;47.984;7.842;2023-11-19T01:42:16;12.20;99.90
17697;DHT22;8967;47.984;7.842;2023-11-19T01:44:57;12.20;99.90
17697;DHT22;8967;47.984;7.842;2023-11-19T01:47:25;12.20;99.90
17697;DHT22;8967;47.984;7.842;2023-11-19T01:49:52;12.20;99.90
17697;DHT22;8967;47.984;7.842;2023-11-19T01:52:22;12.30;99.90
17697;DHT22;8967;47.984;7.842;2023-11-19T01:54:53;12.30;99.90
17697;DHT22;8967;47.984;7.842;2023-11-19T01:57:21;12.30;99.90
17697;DHT22;8967;47.984;7.842;2023-11-19T01:59:52;12.40;99.90
17697;DHT22;8967;47.984;7.842;2023-11-19T02:02:24;12.40;99.90
17697;DHT22;8967;47.984;7.842;2023-11-19T02:04:52;12.40;99.90
17697;DHT22;8967;47.984;7.842;2023-11-19T02:07:20;12.40;99.90
17697;DHT22;8967;47.984;7.842;2023-11-19T02:09:47;12.40;99.90
17697;DHT22;8967;47.984;7.842;2023-11-19T02:12:14;12.30;99.90
17697;DHT22;8967;47.984;7.842;2023-11-19T02:14:44;12.30;99.90
17697;DHT22;8967;47.984;7.842;2023-11-19T02:17:27;12.30;99.90
17697;DHT22;8967;47.984;7.842;2023-11-19T02:19:54;12.30;99.90
17697;DHT22;8967;47.984;7.842;2023-11-19T02:22:22;12.30;99.90
17697;DHT22;8967;47.984;7.842;2023-11-19T02:24:51;12.30;99.90
17697;DHT22;8967;47.984;7.842;2023-11-19T02:27:27;12.30;99.90
17697;DHT22;8967;47.984;7.842;2023-11-19T02:29:57;12.30;99.90
17697;DHT22;8967;47.984;7.842;2023-11-19T02:32:27;12.30;99.90
17697;DHT22;8967;47.984;7.842;2023-11-19T02:34:56;12.30;99.90
17697;DHT22;8967;47.984;7.842;2023-11-19T02:37:28;12.20;99.90
17697;DHT22;8967;47.984;7.842;2023-11-19T02:39:55;12.30;99.90
17697;DHT22;8967;47.984;7.842;2023-11-19T02:42:22;12.20;99.90
17697;DHT22;8967;47.984;7.842;2023-11-19T02:44:49;12.20;99.90
17697;DHT22;8967;47.984;7.842;2023-11-19T02:47:22;12.20;99.90
17697;DHT22;8967;47.984;7.842;2023-11-19T02:49:50;12.20;99.90
17697;DHT22;8967;47.984;7.842;2023-11-19T02:52:19;12.20;99.90
17697;DHT22;8967;47.984;7.842;2023-11-19T02:54:48;12.20;99.90
17697;DHT22;8967;47.984;7.842;2023-11-19T02:57:17;12.20;99.90
17697;DHT22;8967;47.984;7.842;2023-11-19T02:59:45;12.20;99.90
17697;DHT22;8967;47.984;7.842;2023-11-19T03:02:15;12.20;99.90
17697;DHT22;8967;47.984;7.842;2023-11-19T03:04:45;12.20;99.90
17697;DHT22;8967;47.984;7.842;2023-11-19T03:07:13;12.20;99.90
17697;DHT22;8967;47.984;7.842;2023-11-19T03:09:40;12.20;99.90
17697;DHT22;8967;47.984;7.842;2023-11-19T03:12:09;12.20;99.90
17697;DHT22;8967;47.984;7.842;2023-11-19T03:14:36;12.10;99.90
17697;DHT22;8967;47.984;7.842;2023-11-19T03:17:04;12.10;99.90
17697;DHT22;8967;47.984;7.842;2023-11-19T03:19:33;12.10;99.90
17697;DHT22;8967;47.984;7.842;2023-11-19T03:22:02;12.10;99.90
17697;DHT22;8967;47.984;7.842;2023-11-19T03:24:30;12.10;99.90
17697;DHT22;8967;47.984;7.842;2023-11-19T03:26:58;12.10;99.90
17697;DHT22;8967;47.984;7.842;2023-11-19T03:29:25;12.10;99.90
17697;DHT22;8967;47.984;7.842;2023-11-19T03:31:52;12.10;99.90
17697;DHT22;8967;47.984;7.842;2023-11-19T03:34:19;12.10;99.90
17697;DHT22;8967;47.984;7.842;2023-11-19T03:36:48;12.10;99.90
17697;DHT22;8967;47.984;7.842;2023-11-19T03:39:17;12.10;99.90
17697;DHT22;8967;47.984;7.842;2023-11-19T03:41:45;12.10;99.90
17697;DHT22;8967;47.984;7.842;2023-11-19T03:44:13;12.00;99.90
17697;DHT22;8967;47.984;7.842;2023-11-19T03:46:40;12.00;99.90
17697;DHT22;8967;47.984;7.842;2023-11-19T03:49:07;12.10;99.90
17697;DHT22;8967;47.984;7.842;2023-11-19T03:51:34;12.10;99.90
17697;DHT22;8967;47.984;7.842;2023-11-19T03:54:04;12.10;99.90
17697;DHT22;8967;47.984;7.842;2023-11-19T03:56:34;12.10;99.90
17697;DHT22;8967;47.984;7.842;2023-11-19T03:59:01;12.10;99.90
17697;DHT22;8967;47.984;7.842;2023-11-19T04:01:28;12.10;99.90
17697;DHT22;8967;47.984;7.842;2023-11-19T04:03:55;12.10;99.90
17697;DHT22;8967;47.984;7.842;2023-11-19T04:06:25;12.10;99.90
17697;DHT22;8967;47.984;7.842;2023-11-19T04:08:52;12.10;99.90
17697;DHT22;8967;47.984;7.842;2023-11-19T04:11:22;12.10;99.90
17697;DHT22;8967;47.984;7.842;2023-11-19T04:13:50;12.10;99.90
17697;DHT22;8967;47.984;7.842;2023-11-19T04:16:25;12.10;99.90
17697;DHT22;8967;47.984;7.842;2023-11-19T04:18:56;12.10;99.90
17697;DHT22;8967;47.984;7.842;2023-11-19T04:21:25;12.10;99.90
17697;DHT22;8967;47.984;7.842;2023-11-19T04:23:52;12.10;99.90
17697;DHT22;8967;47.984;7.842;2023-11-19T04:26:19;12.20;99.90
17697;DHT22;8967;47.984;7.842;2023-11-19T04:28:46;12.10;99.90
17697;DHT22;8967;47.984;7.842;2023-11-19T04:31:16;12.10;99.90
17697;DHT22;8967;47.984;7.842;2023-11-19T04:33:43;12.10;99.90
17697;DHT22;8967;47.984;7.842;2023-11-19T04:36:11;12.20;99.90
17697;DHT22;8967;47.984;7.842;2023-11-19T04:38:40;12.20;99.90
17697;DHT22;8967;47.984;7.842;2023-11-19T04:41:07;12.20;99.90
17697;DHT22;8967;47.984;7.842;2023-11-19T04:43:34;12.20;99.90
17697;DHT22;8967;47.984;7.842;2023-11-19T04:46:03;12.20;99.90
17697;DHT22;8967;47.984;7.842;2023-11-19T04:48:32;12.20;99.90
17697;DHT22;8967;47.984;7.842;2023-11-19T04:51:01;12.30;99.90
17697;DHT22;8967;47.984;7.842;2023-11-19T04:53:31;12.30;99.90
17697;DHT22;8967;47.984;7.842;2023-11-19T04:55:58;12.30;99.90
17697;DHT22;8967;47.984;7.842;2023-11-19T04:58:25;12.30;99.90
17697;DHT22;8967;47.984;7.842;2023-11-19T05:00:52;12.30;99.90
17697;DHT22;8967;47.984;7.842;2023-11-19T05:03:19;12.30;99.90
17697;DHT22;8967;47.984;7.842;2023-11-19T05:05:49;12.30;99.90
17697;DHT22;8967;47.984;7.842;2023-11-19T05:08:16;12.30;99.90
17697;DHT22;8967;47.984;7.842;2023-11-19T05:10:46;12.30;99.90
17697;DHT22;8967;47.984;7.842;2023-11-19T05:13:15;12.30;99.90
17697;DHT22;8967;47.984;7.842;2023-11-19T05:15:43;12.30;99.90
17697;DHT22;8967;47.984;7.842;2023-11-19T05:18:10;12.40;99.90
17697;DHT22;8967;47.984;7.842;2023-11-19T05:20:39;12.40;99.90
17697;DHT22;8967;47.984;7.842;2023-11-19T05:23:08;12.40;99.90
17697;DHT22;8967;47.984;7.842;2023-11-19T05:25:36;12.40;99.90
17697;DHT22;8967;47.984;7.842;2023-11-19T05:28:03;12.40;99.90
17697;DHT22;8967;47.984;7.842;2023-11-19T05:30:30;12.40;99.90
17697;DHT22;8967;47.984;7.842;2023-11-19T05:33:00;12.40;99.90
17697;DHT22;8967;47.984;7.842;2023-11-19T05:35:27;12.40;99.90
17697;DHT22;8967;47.984;7.842;2023-11-19T05:37:57;12.40;99.90
17697;DHT22;8967;47.984;7.842;2023-11-19T05:40:25;12.40;99.90
17697;DHT22;8967;47.984;7.842;2023-11-19T05:42:52;12.40;99.90
17697;DHT22;8967;47.984;7.842;2023-11-19T05:45:20;12.40;99.90
17697;DHT22;8967;47.984;7.842;2023-11-19T05:47:49;12.40;99.90
17697;DHT22;8967;47.984;7.842;2023-11-19T05:50:17;12.50;99.90
17697;DHT22;8967;47.984;7.842;2023-11-19T05:52:45;12.50;99.90
17697;DHT22;8967;47.984;7.842;2023-11-19T05:55:12;12.50;99.90
17697;DHT22;8967;47.984;7.842;2023-11-19T05:57:41;12.50;99.90
17697;DHT22;8967;47.984;7.842;2023-11-19T06:00:09;12.50;99.90
17697;DHT22;8967;47.984;7.842;2023-11-19T06:02:38;12.50;99.90
17697;DHT22;8967;47.984;7.842;2023-11-19T06:05:06;12.50;99.90
17697;DHT22;8967;47.984;7.842;2023-11-19T06:07:33;12.50;99.90
17697;DHT22;8967;47.984;7.842;2023-11-19T06:10:01;12.50;99.90
17697;DHT22;8967;47.984;7.842;2023-11-19T06:12:29;12.50;99.90
17697;DHT22;8967;47.984;7.842;2023-11-19T06:15:00;12.50;99.90
17697;DHT22;8967;47.984;7.842;2023-11-19T06:17:27;12.50;99.90
17697;DHT22;8967;47.984;7.842;2023-11-19T06:19:55;12.60;99.90
17697;DHT22;8967;47.984;7.842;2023-11-19T06:22:24;12.60;99.90
17697;DHT22;8967;47.984;7.842;2023-11-19T06:24:51;12.60;99.90
17697;DHT22;8967;47.984;7.842;2023-11-19T06:27:18;12.60;99.90
17697;DHT22;8967;47.984;7.842;2023-11-19T06:29:45;12.60;99.90
17697;DHT22;8967;47.984;7.842;2023-11-19T06:32:13;12.60;99.90
17697;DHT22;8967;47.984;7.842;2023-11-19T06:34:41;12.60;99.90
17697;DHT22;8967;47.984;7.842;2023-11-19T06:37:09;12.60;99.90
17697;DHT22;8967;47.984;7.842;2023-11-19T06:39:38;12.70;99.90
17697;DHT22;8967;47.984;7.842;2023-11-19T06:42:06;12.70;99.90
17697;DHT22;8967;47.984;7.842;2023-11-19T06:44:33;12.70;99.90
17697;DHT22;8967;47.984;7.842;2023-11-19T06:47:01;12.70;99.90
17697;DHT22;8967;47.984;7.842;2023-11-19T06:49:29;12.70;99.90
17697;DHT22;8967;47.984;7.842;2023-11-19T06:51:56;12.70;99.90
17697;DHT22;8967;47.984;7.842;2023-11-19T06:54:23;12.70;99.90
17697;DHT22;8967;47.984;7.842;2023-11-19T06:56:51;12.70;99.90
17697;DHT22;8967;47.984;7.842;2023-11-19T06:59:18;12.70;99.90
17697;DHT22;8967;47.984;7.842;2023-11-19T07:02:13;12.80;99.90
17697;DHT22;8967;47.984;7.842;2023-11-19T07:04:42;12.80;99.90
17697;DHT22;8967;47.984;7.842;2023-11-19T07:07:09;12.80;99.90
17697;DHT22;8967;47.984;7.842;2023-11-19T07:09:36;12.80;99.90
17697;DHT22;8967;47.984;7.842;2023-11-19T07:12:04;12.80;99.90
17697;DHT22;8967;47.984;7.842;2023-11-19T07:14:32;12.80;99.90
17697;DHT22;8967;47.984;7.842;2023-11-19T07:16:59;12.80;99.90
17697;DHT22;8967;47.984;7.842;2023-11-19T07:19:36;12.80;99.90
17697;DHT22;8967;47.984;7.842;2023-11-19T07:22:09;12.80;99.90
17697;DHT22;8967;47.984;7.842;2023-11-19T07:24:39;12.90;99.90
17697;DHT22;8967;47.984;7.842;2023-11-19T07:27:06;12.90;99.90
17697;DHT22;8967;47.984;7.842;2023-11-19T07:29:37;12.90;99.90
17697;DHT22;8967;47.984;7.842;2023-11-19T07:32:05;12.90;99.90
17697;DHT22;8967;47.984;7.842;2023-11-19T07:34:34;12.90;99.90
17697;DHT22;8967;47.984;7.842;2023-11-19T07:37:03;12.90;99.90
17697;DHT22;8967;47.984;7.842;2023-11-19T07:39:34;13.00;99.90
17697;DHT22;8967;47.984;7.842;2023-11-19T07:42:03;13.00;99.90
17697;DHT22;8967;47.984;7.842;2023-11-19T07:44:31;13.00;99.90
17697;DHT22;8967;47.984;7.842;2023-11-19T07:47:03;13.00;99.90
17697;DHT22;8967;47.984;7.842;2023-11-19T07:49:31;13.10;99.90
17697;DHT22;8967;47.984;7.842;2023-11-19T07:52:00;13.10;99.90
17697;DHT22;8967;47.984;7.842;2023-11-19T07:54:28;13.10;99.90
17697;DHT22;8967;47.984;7.842;2023-11-19T07:56:57;13.10;99.90
17697;DHT22;8967;47.984;7.842;2023-11-19T07:59:24;13.10;99.90
17697;DHT22;8967;47.984;7.842;2023-11-19T08:01:56;13.10;99.90
17697;DHT22;8967;47.984;7.842;2023-11-19T08:04:23;13.10;99.90
17697;DHT22;8967;47.984;7.842;2023-11-19T08:06:51;13.10;99.90
17697;DHT22;8967;47.984;7.842;2023-11-19T08:09:18;13.10;99.90
17697;DHT22;8967;47.984;7.842;2023-11-19T08:11:45;13.20;99.90
17697;DHT22;8967;47.984;7.842;2023-11-19T08:14:15;13.20;99.90
17697;DHT22;8967;47.984;7.842;2023-11-19T08:16:42;13.20;99.90
17697;DHT22;8967;47.984;7.842;2023-11-19T08:19:09;13.30;99.90
17697;DHT22;8967;47.984;7.842;2023-11-19T08:21:36;13.30;99.90
17697;DHT22;8967;47.984;7.842;2023-11-19T08:24:04;13.30;99.90
17697;DHT22;8967;47.984;7.842;2023-11-19T08:26:31;13.30;99.90
17697;DHT22;8967;47.984;7.842;2023-11-19T08:28:58;13.30;99.90
17697;DHT22;8967;47.984;7.842;2023-11-19T08:31:27;13.30;99.90
17697;DHT22;8967;47.984;7.842;2023-11-19T08:33:54;13.30;99.90
17697;DHT22;8967;47.984;7.842;2023-11-19T08:36:21;13.40;99.90
17697;DHT22;8967;47.984;7.842;2023-11-19T08:38:48;13.40;99.90
17697;DHT22;8967;47.984;7.842;2023-11-19T08:41:17;13.40;99.90
17697;DHT22;8967;47.984;7.842;2023-11-19T08:43:45;13.40;99.90
17697;DHT22;8967;47.984;7.842;2023-11-19T08:46:12;13.40;99.90
17697;DHT22;8967;47.984;7.842;2023-11-19T08:48:43;13.50;99.90
17697;DHT22;8967;47.984;7.842;2023-11-19T08:51:12;13.40;99.90
17697;DHT22;8967;47.984;7.842;2023-11-19T08:53:39;13.50;99.90
17697;DHT22;8967;47.984;7.842;2023-11-19T08:56:08;13.50;99.90
17697;DHT22;8967;47.984;7.842;2023-11-19T08:58:35;13.50;99.90
17697;DHT22;8967;47.984;7.842;2023-11-19T09:01:02;13.50;99.90
17697;DHT22;8967;47.984;7.842;2023-11-19T09:03:31;13.50;99.90
17697;DHT22;8967;47.984;7.842;2023-11-19T09:06:00;13.50;99.90
17697;DHT22;8967;47.984;7.842;2023-11-19T09:08:27;13.50;99.90
17697;DHT22;8967;47.984;7.842;2023-11-19T09:10:54;13.50;99.90
17697;DHT22;8967;47.984;7.842;2023-11-19T09:13:46;13.50;99.90
17697;DHT22;8967;47.984;7.842;2023-11-19T09:16:21;13.60;99.90
17697;DHT22;8967;47.984;7.842;2023-11-19T09:18:50;13.60;99.90
17697;DHT22;8967;47.984;7.842;2023-11-19T09:21:19;13.60;99.90
17697;DHT22;8967;47.984;7.842;2023-11-19T09:23:48;13.60;99.90
17697;DHT22;8967;47.984;7.842;2023-11-19T09:26:16;13.60;99.90
17697;DHT22;8967;47.984;7.842;2023-11-19T09:28:43;13.70;99.90
17697;DHT22;8967;47.984;7.842;2023-11-19T09:31:15;13.70;99.90
17697;DHT22;8967;47.984;7.842;2023-11-19T09:33:42;13.70;99.90
17697;DHT22;8967;47.984;7.842;2023-11-19T09:36:11;13.70;99.90
17697;DHT22;8967;47.984;7.842;2023-11-19T09:38:43;13.70;99.90
17697;DHT22;8967;47.984;7.842;2023-11-19T09:41:13;13.70;99.90
17697;DHT22;8967;47.984;7.842;2023-11-19T09:43:42;13.70;99.90
17697;DHT22;8967;47.984;7.842;2023-11-19T09:46:10;13.70;99.90
17697;DHT22;8967;47.984;7.842;2023-11-19T09:48:39;13.70;99.90
17697;DHT22;8967;47.984;7.842;2023-11-19T09:51:10;13.70;99.90
17697;DHT22;8967;47.984;7.842;2023-11-19T09:53:38;13.70;99.90
17697;DHT22;8967;47.984;7.842;2023-11-19T09:56:09;13.70;99.90
17697;DHT22;8967;47.984;7.842;2023-11-19T09:58:37;13.80;99.90
17697;DHT22;8967;47.984;7.842;2023-11-19T10:01:05;13.80;99.90
17697;DHT22;8967;47.984;7.842;2023-11-19T10:03:36;13.80;99.90
17697;DHT22;8967;47.984;7.842;2023-11-19T10:06:06;13.80;99.90
17697;DHT22;8967;47.984;7.842;2023-11-19T10:08:34;13.90;99.90
17697;DHT22;8967;47.984;7.842;2023-11-19T10:11:01;13.90;99.90
17697;DHT22;8967;47.984;7.842;2023-11-19T10:13:29;13.90;99.90
17697;DHT22;8967;47.984;7.842;2023-11-19T10:15:57;13.90;99.90
17697;DHT22;8967;47.984;7.842;2023-11-19T10:18:26;13.90;99.90
17697;DHT22;8967;47.984;7.842;2023-11-19T10:20:53;13.90;99.90
17697;DHT22;8967;47.984;7.842;2023-11-19T10:23:21;13.90;99.90
17697;DHT22;8967;47.984;7.842;2023-11-19T10:25:53;13.90;99.90
17697;DHT22;8967;47.984;7.842;2023-11-19T10:28:20;13.90;99.90
17697;DHT22;8967;47.984;7.842;2023-11-19T10:30:48;13.90;99.90
17697;DHT22;8967;47.984;7.842;2023-11-19T10:33:15;14.00;99.90
17697;DHT22;8967;47.984;7.842;2023-11-19T10:35:52;14.00;99.90
17697;DHT22;8967;47.984;7.842;2023-11-19T10:38:19;14.00;99.90
17697;DHT22;8967;47.984;7.842;2023-11-19T10:40:50;14.00;99.90
17697;DHT22;8967;47.984;7.842;2023-11-19T10:43:18;14.10;99.90
17697;DHT22;8967;47.984;7.842;2023-11-19T10:45:49;14.00;99.90
17697;DHT22;8967;47.984;7.842;2023-11-19T10:48:16;14.10;99.90
17697;DHT22;8967;47.984;7.842;2023-11-19T10:54:03;14.10;99.90
17697;DHT22;8967;47.984;7.842;2023-11-19T10:56:34;14.20;99.90
17697;DHT22;8967;47.984;7.842;2023-11-19T10:59:01;14.10;99.90
17697;DHT22;8967;47.984;7.842;2023-11-19T11:01:43;14.20;99.90
17697;DHT22;8967;47.984;7.842;2023-11-19T11:04:13;14.20;99.90
17697;DHT22;8967;47.984;7.842;2023-11-19T11:06:41;14.20;99.90
17697;DHT22;8967;47.984;7.842;2023-11-19T11:09:10;14.20;99.90
17697;DHT22;8967;47.984;7.842;2023-11-19T11:11:39;14.20;99.90
17697;DHT22;8967;47.984;7.842;2023-11-19T11:14:12;14.20;99.90
17697;DHT22;8967;47.984;7.842;2023-11-19T11:16:43;14.20;99.90
17697;DHT22;8967;47.984;7.842;2023-11-19T11:19:15;14.30;99.90
17697;DHT22;8967;47.984;7.842;2023-11-19T11:21:45;14.30;99.90
17697;DHT22;8967;47.984;7.842;2023-11-19T11:24:36;14.40;99.90
17697;DHT22;8967;47.984;7.842;2023-11-19T11:27:33;14.40;99.90
17697;DHT22;8967;47.984;7.842;2023-11-19T11:30:13;14.50;99.90
17697;DHT22;8967;47.984;7.842;2023-11-19T11:32:50;14.50;99.90
17697;DHT22;8967;47.984;7.842;2023-11-19T11:35:30;14.50;99.90
17697;DHT22;8967;47.984;7.842;2023-11-19T11:38:02;14.50;99.90
17697;DHT22;8967;47.984;7.842;2023-11-19T11:40:30;14.50;99.90
17697;DHT22;8967;47.984;7.842;2023-11-19T11:42:57;14.50;99.90
17697;DHT22;8967;47.984;7.842;2023-11-19T11:45:37;14.50;99.90
17697;DHT22;8967;47.984;7.842;2023-11-19T11:48:09;14.50;99.90
17697;DHT22;8967;47.984;7.842;2023-11-19T11:50:48;14.60;99.90
17697;DHT22;8967;47.984;7.842;2023-11-19T11:53:17;14.60;99.90
17697;DHT22;8967;47.984;7.842;2023-11-19T11:55:57;14.60;99.90
17697;DHT22;8967;47.984;7.842;2023-11-19T11:58:32;14.60;99.90
17697;DHT22;8967;47.984;7.842;2023-11-19T12:01:04;14.60;99.90
17697;DHT22;8967;47.984;7.842;2023-11-19T12:03:38;14.60;99.90
17697;DHT22;8967;47.984;7.842;2023-11-19T12:06:08;14.60;99.90
17697;DHT22;8967;47.984;7.842;2023-11-19T12:08:35;14.60;99.90
17697;DHT22;8967;47.984;7.842;2023-11-19T12:11:02;14.70;99.90
17697;DHT22;8967;47.984;7.842;2023-11-19T12:13:46;14.70;99.90
17697;DHT22;8967;47.984;7.842;2023-11-19T12:16:14;14.70;99.90
17697;DHT22;8967;47.984;7.842;2023-11-19T12:18:43;14.70;99.90
17697;DHT22;8967;47.984;7.842;2023-11-19T12:21:10;14.70;99.90
17697;DHT22;8967;47.984;7.842;2023-11-19T12:23:45;14.80;99.90
17697;DHT22;8967;47.984;7.842;2023-11-19T12:26:33;14.70;99.90
17697;DHT22;8967;47.984;7.842;2023-11-19T12:29:01;14.70;99.90
17697;DHT22;8967;47.984;7.842;2023-11-19T12:31:34;14.70;99.90
17697;DHT22;8967;47.984;7.842;2023-11-19T12:34:11;14.70;99.90
17697;DHT22;8967;47.984;7.842;2023-11-19T12:36:41;14.70;99.90
17697;DHT22;8967;47.984;7.842;2023-11-19T12:39:09;14.70;99.90
17697;DHT22;8967;47.984;7.842;2023-11-19T12:41:53;14.70;99.90
17697;DHT22;8967;47.984;7.842;2023-11-19T12:44:20;14.70;99.90
17697;DHT22;8967;47.984;7.842;2023-11-19T12:46:59;14.70;99.90
17697;DHT22;8967;47.984;7.842;2023-11-19T12:49:28;14.70;99.90
17697;DHT22;8967;47.984;7.842;2023-11-19T12:51:55;14.70;99.90
17697;DHT22;8967;47.984;7.842;2023-11-19T12:54:32;14.70;99.90
17697;DHT22;8967;47.984;7.842;2023-11-19T12:56:59;14.70;99.90
17697;DHT22;8967;47.984;7.842;2023-11-19T12:59:29;14.70;99.90
17697;DHT22;8967;47.984;7.842;2023-11-19T13:01:56;14.70;99.90
17697;DHT22;8967;47.984;7.842;2023-11-19T13:04:29;14.70;99.90
17697;DHT22;8967;47.984;7.842;2023-11-19T13:06:57;14.70;99.90
17697;DHT22;8967;47.984;7.842;2023-11-19T13:09:25;14.70;99.90
17697;DHT22;8967;47.984;7.842;2023-11-19T13:11:52;14.70;99.90
17697;DHT22;8967;47.984;7.842;2023-11-19T13:14:20;14.70;99.90
17697;DHT22;8967;47.984;7.842;2023-11-19T13:16:47;14.70;99.90
17697;DHT22;8967;47.984;7.842;2023-11-19T13:19:15;14.70;99.90
17697;DHT22;8967;47.984;7.842;2023-11-19T13:21:47;14.70;99.90
17697;DHT22;8967;47.984;7.842;2023-11-19T13:24:15;14.60;99.90
17697;DHT22;8967;47.984;7.842;2023-11-19T13:26:44;14.60;99.90
17697;DHT22;8967;47.984;7.842;2023-11-19T13:29:11;14.60;99.90
17697;DHT22;8967;47.984;7.842;2023-11-19T13:31:38;14.60;99.90
17697;DHT22;8967;47.984;7.842;2023-11-19T13:34:05;14.50;99.90
17697;DHT22;8967;47.984;7.842;2023-11-19T13:36:33;14.50;99.90
17697;DHT22;8967;47.984;7.842;2023-11-19T13:39:02;14.50;99.90
17697;DHT22;8967;47.984;7.842;2023-11-19T13:41:32;14.50;99.90
17697;DHT22;8967;47.984;7.842;2023-11-19T13:44:04;14.50;99.90
17697;DHT22;8967;47.984;7.842;2023-11-19T13:46:33;14.50;99.90
17697;DHT22;8967;47.984;7.842;2023-11-19T13:49:00;14.40;99.90
17697;DHT22;8967;47.984;7.842;2023-11-19T13:51:29;14.40;99.90
17697;DHT22;8967;47.984;7.842;2023-11-19T13:53:56;14.40;99.90
17697;DHT22;8967;47.984;7.842;2023-11-19T13:56:24;14.40;99.90
17697;DHT22;8967;47.984;7.842;2023-11-19T13:58:51;14.40;99.90
17697;DHT22;8967;47.984;7.842;2023-11-19T14:01:19;14.40;99.90
17697;DHT22;8967;47.984;7.842;2023-11-19T14:03:46;14.40;99.90
17697;DHT22;8967;47.984;7.842;2023-11-19T14:06:15;14.30;99.90
17697;DHT22;8967;47.984;7.842;2023-11-19T14:08:45;14.30;99.90
17697;DHT22;8967;47.984;7.842;2023-11-19T14:11:12;14.30;99.90
17697;DHT22;8967;47.984;7.842;2023-11-19T14:13:40;14.30;99.90
17697;DHT22;8967;47.984;7.842;2023-11-19T14:16:08;14.30;99.90
17697;DHT22;8967;47.984;7.842;2023-11-19T14:18:35;14.30;99.90
17697;DHT22;8967;47.984;7.842;2023-11-19T14:21:02;14.30;99.90
17697;DHT22;8967;47.984;7.842;2023-11-19T14:23:30;14.30;99.90
17697;DHT22;8967;47.984;7.842;2023-11-19T14:25:57;14.20;99.90
17697;DHT22;8967;47.984;7.842;2023-11-19T14:28:24;14.20;99.90
17697;DHT22;8967;47.984;7.842;2023-11-19T14:30:53;14.20;99.90
17697;DHT22;8967;47.984;7.842;2023-11-19T14:33:22;14.20;99.90
17697;DHT22;8967;47.984;7.842;2023-11-19T14:35:52;14.20;99.90
17697;DHT22;8967;47.984;7.842;2023-11-19T14:38:19;14.20;99.90
17697;DHT22;8967;47.984;7.842;2023-11-19T14:40:48;14.20;99.90
17697;DHT22;8967;47.984;7.842;2023-11-19T14:43:15;14.20;99.90
17697;DHT22;8967;47.984;7.842;2023-11-19T14:45:42;14.20;99.90
17697;DHT22;8967;47.984;7.842;2023-11-19T14:48:13;14.20;99.90
17697;DHT22;8967;47.984;7.842;2023-11-19T14:50:40;14.10;99.90
17697;DHT22;8967;47.984;7.842;2023-11-19T14:53:10;14.10;99.90
17697;DHT22;8967;47.984;7.842;2023-11-19T14:55:39;14.10;99.90
17697;DHT22;8967;47.984;7.842;2023-11-19T14:58:06;14.10;99.90
17697;DHT22;8967;47.984;7.842;2023-11-19T15:00:33;14.00;99.90
17697;DHT22;8967;47.984;7.842;2023-11-19T15:03:00;14.00;99.90
17697;DHT22;8967;47.984;7.842;2023-11-19T15:05:29;14.00;99.90
17697;DHT22;8967;47.984;7.842;2023-11-19T15:07:59;14.00;99.90
17697;DHT22;8967;47.984;7.842;2023-11-19T15:10:26;14.00;99.90
17697;DHT22;8967;47.984;7.842;2023-11-19T15:12:53;14.00;99.90
17697;DHT22;8967;47.984;7.842;2023-11-19T15:15:20;14.00;99.90
17697;DHT22;8967;47.984;7.842;2023-11-19T15:17:50;14.00;99.90
17697;DHT22;8967;47.984;7.842;2023-11-19T15:20:17;14.00;99.90
17697;DHT22;8967;47.984;7.842;2023-11-19T15:22:48;14.00;99.90
17697;DHT22;8967;47.984;7.842;2023-11-19T15:25:15;14.00;99.90
17697;DHT22;8967;47.984;7.842;2023-11-19T15:27:44;14.00;99.90
17697;DHT22;8967;47.984;7.842;2023-11-19T15:30:14;14.00;99.90
17697;DHT22;8967;47.984;7.842;2023-11-19T15:32:41;13.90;99.90
17697;DHT22;8967;47.984;7.842;2023-11-19T15:35:08;13.90;99.90
17697;DHT22;8967;47.984;7.842;2023-11-19T15:37:36;13.90;99.90
17697;DHT22;8967;47.984;7.842;2023-11-19T15:40:08;13.90;99.90
17697;DHT22;8967;47.984;7.842;2023-11-19T15:42:38;13.90;99.90
17697;DHT22;8967;47.984;7.842;2023-11-19T15:45:07;13.90;99.90
17697;DHT22;8967;47.984;7.842;2023-11-19T15:47:37;13.90;99.90
17697;DHT22;8967;47.984;7.842;2023-11-19T15:50:07;13.80;99.90
17697;DHT22;8967;47.984;7.842;2023-11-19T15:52:35;13.80;99.90
17697;DHT22;8967;47.984;7.842;2023-11-19T15:55:04;13.80;99.90
17697;DHT22;8967;47.984;7.842;2023-11-19T15:57:35;13.80;99.90
17697;DHT22;8967;47.984;7.842;2023-11-19T16:00:03;13.70;99.90